Time;durP1;ratioP1;P1;durP2;ratioP2;P2;SDS_P1;SDS_P2;PMS_P1;PMS_P2;Temp;Humidity;BMP_temperature;BMP_pressure;BME280_temperature;BME280_humidity;BME280_pressure;Samples;Min_cycle;Max_cycle;Signal;HPM_P1;HPM_P2
2022/02/12 00:00:12;;;;;;;18.10;7.07;;;;;;;;;;503343;29;1303;-76
2022/02/12 00:00:27;;;;;;;17.98;7.20;;;;;;;;;;505345;29;1196;-76
2022/02/12 00:00:42;;;;;;;18.23;7.23;;;;;;;;;;505753;29;1235;-76
2022/02/12 00:00:58;;;;;;;17.27;7.23;;;;;;;;;;505963;29;778;-75
2022/02/12 00:01:13;;;;;;;16.05;7.22;;;;;;;;;;505869;29;778;-76
2022/02/12 00:01:28;;;;;;;17.07;7.13;;;;;;;;;;505635;29;738;-76
2022/02/12 00:01:44;;;;;;;19.90;7.20;;;;;;;;;;505809;29;830;-76
2022/02/12 00:01:59;;;;;;;18.08;7.20;;;;;;;;;;505450;29;794;-76
2022/02/12 00:02:14;;;;;;;13.17;6.83;;;;;;;;;;507707;29;881;-76
2022/02/12 00:02:30;;;;;;;15.07;6.70;;;;;;;;;;507714;29;877;-76
2022/02/12 00:02:45;;;;;;;16.38;6.93;;;;;;;;;;507658;29;916;-76
2022/02/12 00:03:01;;;;;;;16.50;7.00;;;;;;;;;;507537;29;1365;-75
2022/02/12 00:03:16;;;;;;;16.98;6.82;;;;;;;;;;506279;29;1416;-76
2022/02/12 00:03:33;;;;;;;16.33;6.90;;;;;;;;;;506435;29;832;-76
2022/02/12 00:03:48;;;;;;;16.27;6.88;;;;;;;;;;505592;29;1546;-76
2022/02/12 00:04:03;;;;;;;15.17;6.90;;;;;;;;;;503335;29;1304;-76
2022/02/12 00:04:18;;;;;;;16.03;7.10;;;;;;;;;;504543;29;896;-75
2022/02/12 00:04:34;;;;;;;19.33;7.25;;;;;;;;;;505533;29;886;-76
2022/02/12 00:04:49;;;;;;;21.13;7.13;;;;;;;;;;505585;29;786;-76
2022/02/12 00:05:05;;;;;;;18.57;7.23;;;;;;;;;;505720;29;802;-75
2022/02/12 00:05:24;;;;;;;16.98;7.50;;;;;;;;;;505041;29;817;-76
2022/02/12 00:05:39;;;;;;;16.02;7.18;;;;;;;;;;505292;29;813;-76
2022/02/12 00:05:54;;;;;;;14.05;6.70;;;;;;;;;;505676;29;1175;-76
2022/02/12 00:06:10;;;;;;;17.47;6.90;;;;;;;;;;505392;29;778;-76
2022/02/12 00:06:25;;;;;;;18.00;7.07;;;;;;;;;;505948;29;810;-76
2022/02/12 00:06:40;;;;;;;16.23;7.00;;;;;;;;;;505775;29;1156;-76
2022/02/12 00:06:56;;;;;;;18.73;7.00;;;;;;;;;;505727;29;768;-75
2022/02/12 00:07:11;;;;;;;18.93;6.93;;;;;;;;;;505915;29;1021;-76
2022/02/12 00:07:26;;;;;;;19.10;6.97;;;;;;;;;;505806;29;1020;-76
2022/02/12 00:07:41;;;;;;;20.33;6.97;;;;;;;;;;505830;29;1148;-76
2022/02/12 00:07:58;;;;;;;19.23;6.90;;;;;;;;;;507662;29;1148;-76
2022/02/12 00:08:14;;;;;;;17.75;7.20;;;;;;;;;;506346;29;1504;-76
2022/02/12 00:08:29;;;;;;;17.67;7.40;;;;;;;;;;506449;29;825;-76
2022/02/12 00:08:44;;;;;;;18.10;7.32;;;;;;;;;;504440;29;2618;-76
2022/02/12 00:08:59;;;;;;;18.50;7.13;;;;;;;;;;503832;29;1217;-76
2022/02/12 00:09:15;;;;;;;21.67;7.20;;;;;;;;;;504327;29;814;-76
2022/02/12 00:09:31;;;;;;;21.55;7.13;;;;;;;;;;504060;29;865;-76
2022/02/12 00:09:46;;;;;;;23.38;7.25;;;;;;;;;;500452;29;1146;-76
2022/02/12 00:10:03;;;;;;;22.03;7.27;;;;;;;;;;499648;29;1318;-76
2022/02/12 00:10:18;;;;;;;20.42;7.32;;;;;;;;;;499661;29;1035;-76
2022/02/12 00:10:34;;;;;;;20.90;7.50;;;;;;;;;;502213;29;971;-76
2022/02/12 00:10:49;;;;;;;19.50;7.28;;;;;;;;;;502986;29;1307;-76
2022/02/12 00:11:05;;;;;;;20.80;7.63;;;;;;;;;;501716;29;774;-76
2022/02/12 00:11:20;;;;;;;21.33;7.88;;;;;;;;;;503658;29;1135;-76
2022/02/12 00:11:35;;;;;;;21.10;7.77;;;;;;;;;;503449;29;786;-76
2022/02/12 00:11:51;;;;;;;20.47;7.40;;;;;;;;;;502265;29;925;-76
2022/02/12 00:12:06;;;;;;;22.30;7.30;;;;;;;;;;504871;29;854;-76
2022/02/12 00:12:22;;;;;;;23.33;7.23;;;;;;;;;;503995;29;1911;-76
2022/02/12 00:12:37;;;;;;;19.50;7.22;;;;;;;;;;507442;29;1214;-76
2022/02/12 00:12:53;;;;;;;17.90;7.10;;;;;;;;;;507682;29;1145;-77
2022/02/12 00:13:12;;;;;;;18.50;7.07;;;;;;;;;;506008;29;1335;-77
2022/02/12 00:13:28;;;;;;;19.38;7.13;;;;;;;;;;504959;29;1015;-76
2022/02/12 00:13:43;;;;;;;18.60;6.97;;;;;;;;;;505407;29;1373;-77
2022/02/12 00:13:58;;;;;;;16.93;6.97;;;;;;;;;;505627;29;1431;-77
2022/02/12 00:14:13;;;;;;;17.83;7.15;;;;;;;;;;505649;29;1081;-77
2022/02/12 00:14:30;;;;;;;18.80;7.47;;;;;;;;;;503200;29;1283;-77
2022/02/12 00:14:45;;;;;;;17.73;7.30;;;;;;;;;;503634;29;1359;-76
2022/02/12 00:15:01;;;;;;;16.17;7.17;;;;;;;;;;505620;29;1227;-76
2022/02/12 00:15:17;;;;;;;18.75;7.13;;;;;;;;;;505354;29;1144;-76
2022/02/12 00:15:32;;;;;;;18.77;7.03;;;;;;;;;;505785;29;703;-76
2022/02/12 00:15:48;;;;;;;18.10;7.30;;;;;;;;;;504819;29;612;-77
2022/02/12 00:16:03;;;;;;;19.93;7.57;;;;;;;;;;503504;29;781;-77
2022/02/12 00:16:19;;;;;;;20.15;7.35;;;;;;;;;;505403;29;1241;-77
2022/02/12 00:16:34;;;;;;;16.47;6.60;;;;;;;;;;507174;29;1162;-77
2022/02/12 00:16:49;;;;;;;15.98;6.93;;;;;;;;;;507659;29;837;-75
2022/02/12 00:17:05;;;;;;;19.23;7.40;;;;;;;;;;507753;29;869;-74
2022/02/12 00:17:20;;;;;;;20.27;7.27;;;;;;;;;;505743;29;1365;-74
2022/02/12 00:17:35;;;;;;;17.60;7.00;;;;;;;;;;503709;29;1270;-74
2022/02/12 00:17:51;;;;;;;17.07;6.97;;;;;;;;;;503892;29;1276;-75
2022/02/12 00:18:07;;;;;;;18.42;6.97;;;;;;;;;;505555;29;1322;-75
2022/02/12 00:18:22;;;;;;;18.20;6.80;;;;;;;;;;505034;29;1416;-77
2022/02/12 00:18:38;;;;;;;17.70;6.90;;;;;;;;;;505086;29;1393;-77
2022/02/12 00:18:53;;;;;;;16.83;7.00;;;;;;;;;;505451;29;924;-77
2022/02/12 00:19:08;;;;;;;17.87;7.00;;;;;;;;;;505683;29;933;-76
2022/02/12 00:19:23;;;;;;;20.40;7.00;;;;;;;;;;505572;29;817;-76
2022/02/12 00:19:39;;;;;;;21.00;7.30;;;;;;;;;;505530;29;1262;-77
2022/02/12 00:19:54;;;;;;;20.23;7.53;;;;;;;;;;505551;29;1253;-77
2022/02/12 00:20:10;;;;;;;19.73;7.13;;;;;;;;;;505329;29;1205;-77
2022/02/12 00:20:25;;;;;;;17.48;6.80;;;;;;;;;;504841;29;1445;-77
2022/02/12 00:20:41;;;;;;;15.43;7.00;;;;;;;;;;503239;29;1327;-77
2022/02/12 00:20:56;;;;;;;17.27;7.13;;;;;;;;;;505837;29;735;-75
2022/02/12 00:21:11;;;;;;;17.17;6.70;;;;;;;;;;505749;29;1372;-77
2022/02/12 00:21:27;;;;;;;15.80;6.83;;;;;;;;;;505773;29;750;-77
2022/02/12 00:21:42;;;;;;;17.42;7.10;;;;;;;;;;506057;29;1206;-77
2022/02/12 00:21:58;;;;;;;20.25;7.13;;;;;;;;;;507667;29;805;-77
2022/02/12 00:22:13;;;;;;;19.57;7.40;;;;;;;;;;505313;29;1250;-77
2022/02/12 00:22:29;;;;;;;20.00;7.45;;;;;;;;;;505176;29;1336;-76
2022/02/12 00:22:45;;;;;;;21.67;7.43;;;;;;;;;;505066;29;908;-76
2022/02/12 00:23:00;;;;;;;21.02;7.20;;;;;;;;;;506894;29;907;-75
2022/02/12 00:23:17;;;;;;;20.35;6.80;;;;;;;;;;504855;29;1457;-75
2022/02/12 00:23:32;;;;;;;19.13;6.93;;;;;;;;;;505617;29;806;-76
2022/02/12 00:23:47;;;;;;;17.23;7.30;;;;;;;;;;505694;29;798;-75
2022/02/12 00:24:03;;;;;;;17.40;7.20;;;;;;;;;;505571;29;925;-75
2022/02/12 00:24:18;;;;;;;16.25;6.70;;;;;;;;;;505273;29;825;-76
2022/02/12 00:24:34;;;;;;;16.87;6.67;;;;;;;;;;507455;29;1161;-75
2022/02/12 00:24:49;;;;;;;16.50;6.83;;;;;;;;;;507439;29;841;-76
2022/02/12 00:25:05;;;;;;;15.45;6.93;;;;;;;;;;507408;29;1391;-75
2022/02/12 00:25:20;;;;;;;16.37;7.20;;;;;;;;;;506715;29;1040;-75
2022/02/12 00:25:35;;;;;;;16.92;6.82;;;;;;;;;;505658;29;718;-75
2022/02/12 00:25:51;;;;;;;17.30;6.60;;;;;;;;;;505541;29;757;-75
2022/02/12 00:26:07;;;;;;;15.82;6.80;;;;;;;;;;505886;29;864;-75
2022/02/12 00:26:22;;;;;;;15.27;6.93;;;;;;;;;;505642;29;1670;-75
2022/02/12 00:26:37;;;;;;;16.07;6.90;;;;;;;;;;506189;29;1151;-75
2022/02/12 00:26:53;;;;;;;17.27;6.70;;;;;;;;;;504916;29;1341;-75
2022/02/12 00:27:09;;;;;;;18.25;6.88;;;;;;;;;;505587;29;805;-75
2022/02/12 00:27:24;;;;;;;18.38;6.72;;;;;;;;;;505764;29;1275;-75
2022/02/12 00:27:39;;;;;;;17.63;6.57;;;;;;;;;;506772;29;1377;-76
2022/02/12 00:27:54;;;;;;;15.83;6.67;;;;;;;;;;506541;29;1390;-75
2022/02/12 00:28:10;;;;;;;16.10;6.80;;;;;;;;;;506760;29;1632;-75
2022/02/12 00:28:25;;;;;;;18.08;6.80;;;;;;;;;;506055;29;1202;-75
2022/02/12 00:28:40;;;;;;;16.13;6.67;;;;;;;;;;507300;29;725;-76
2022/02/12 00:28:55;;;;;;;15.20;6.57;;;;;;;;;;505337;29;1273;-76
2022/02/12 00:29:11;;;;;;;17.75;6.68;;;;;;;;;;505232;29;1297;-76
2022/02/12 00:29:26;;;;;;;17.03;6.60;;;;;;;;;;505461;29;785;-76
2022/02/12 00:29:41;;;;;;;14.67;6.50;;;;;;;;;;505491;29;737;-76
2022/02/12 00:29:57;;;;;;;16.13;6.77;;;;;;;;;;505465;29;1156;-76
2022/02/12 00:30:12;;;;;;;17.08;6.88;;;;;;;;;;505280;29;813;-77
2022/02/12 00:30:28;;;;;;;17.40;6.97;;;;;;;;;;503359;29;1214;-76
2022/02/12 00:30:43;;;;;;;17.35;6.85;;;;;;;;;;503669;29;1199;-76
2022/02/12 00:30:58;;;;;;;15.13;6.53;;;;;;;;;;505475;29;805;-77
2022/02/12 00:31:14;;;;;;;14.50;6.40;;;;;;;;;;505239;29;892;-76
2022/02/12 00:31:29;;;;;;;14.73;6.50;;;;;;;;;;505667;29;927;-76
2022/02/12 00:31:44;;;;;;;15.75;6.68;;;;;;;;;;505768;29;821;-76
2022/02/12 00:32:00;;;;;;;15.13;6.43;;;;;;;;;;505810;29;857;-77
2022/02/12 00:32:15;;;;;;;13.07;6.10;;;;;;;;;;505437;29;1918;-76
2022/02/12 00:32:31;;;;;;;15.60;6.50;;;;;;;;;;507571;29;714;-77
2022/02/12 00:32:46;;;;;;;19.30;6.73;;;;;;;;;;507293;29;1269;-76
2022/02/12 00:33:06;;;;;;;16.67;6.38;;;;;;;;;;507589;29;987;-76
2022/02/12 00:33:21;;;;;;;15.20;6.45;;;;;;;;;;505851;29;1475;-76
2022/02/12 00:33:37;;;;;;;16.53;6.40;;;;;;;;;;503548;29;1217;-76
2022/02/12 00:33:52;;;;;;;16.80;6.63;;;;;;;;;;503561;29;1345;-76
2022/02/12 00:34:07;;;;;;;14.85;6.28;;;;;;;;;;503703;29;853;-76
2022/02/12 00:34:23;;;;;;;16.30;5.97;;;;;;;;;;504965;29;770;-77
2022/02/12 00:34:38;;;;;;;17.60;6.50;;;;;;;;;;505572;29;810;-77
2022/02/12 00:34:53;;;;;;;16.23;6.63;;;;;;;;;;505402;29;735;-77
2022/02/12 00:35:08;;;;;;;18.20;6.87;;;;;;;;;;505517;29;801;-77
2022/02/12 00:35:24;;;;;;;19.57;6.93;;;;;;;;;;504760;29;1257;-76
2022/02/12 00:35:40;;;;;;;18.55;6.75;;;;;;;;;;503553;29;1223;-76
2022/02/12 00:35:55;;;;;;;15.80;6.20;;;;;;;;;;503675;29;818;-76
2022/02/12 00:36:10;;;;;;;16.00;6.40;;;;;;;;;;503140;29;805;-76
2022/02/12 00:36:26;;;;;;;16.40;6.60;;;;;;;;;;503154;29;1311;-76
2022/02/12 00:36:41;;;;;;;14.15;6.30;;;;;;;;;;503575;29;683;-76
2022/02/12 00:36:57;;;;;;;14.13;6.13;;;;;;;;;;503491;29;814;-76
2022/02/12 00:37:12;;;;;;;16.33;6.20;;;;;;;;;;503519;29;845;-76
2022/02/12 00:37:29;;;;;;;16.57;6.37;;;;;;;;;;502731;29;1336;-76
2022/02/12 00:37:44;;;;;;;14.68;6.40;;;;;;;;;;503215;29;1300;-77
2022/02/12 00:37:59;;;;;;;16.10;6.30;;;;;;;;;;503418;29;711;-76
2022/02/12 00:38:15;;;;;;;17.38;6.47;;;;;;;;;;503854;29;1476;-77
2022/02/12 00:38:30;;;;;;;16.67;6.30;;;;;;;;;;505026;29;1360;-76
2022/02/12 00:38:45;;;;;;;17.97;6.50;;;;;;;;;;505290;29;1097;-76
2022/02/12 00:39:00;;;;;;;18.13;6.78;;;;;;;;;;505440;29;758;-76
2022/02/12 00:39:16;;;;;;;16.23;6.53;;;;;;;;;;505529;29;1233;-76
2022/02/12 00:39:31;;;;;;;13.47;6.10;;;;;;;;;;507023;29;749;-77
2022/02/12 00:39:46;;;;;;;12.02;6.00;;;;;;;;;;507342;29;1389;-76
2022/02/12 00:40:02;;;;;;;14.57;6.13;;;;;;;;;;506564;29;2376;-76
2022/02/12 00:40:20;;;;;;;15.82;6.43;;;;;;;;;;506632;29;1590;-76
2022/02/12 00:40:35;;;;;;;14.88;6.80;;;;;;;;;;507569;29;860;-78
2022/02/12 00:40:50;;;;;;;15.43;6.73;;;;;;;;;;507560;29;1306;-76
2022/02/12 00:41:05;;;;;;;15.68;6.60;;;;;;;;;;507060;29;1245;-76
2022/02/12 00:41:21;;;;;;;15.07;6.40;;;;;;;;;;505719;29;928;-76
2022/02/12 00:41:36;;;;;;;15.47;6.27;;;;;;;;;;505063;29;842;-76
2022/02/12 00:41:51;;;;;;;15.45;6.60;;;;;;;;;;505627;29;809;-76
2022/02/12 00:42:07;;;;;;;14.90;6.60;;;;;;;;;;506730;29;1720;-76
2022/02/12 00:42:22;;;;;;;15.57;6.83;;;;;;;;;;507723;29;849;-76
2022/02/12 00:42:38;;;;;;;18.60;6.95;;;;;;;;;;507241;29;1235;-76
2022/02/12 00:42:53;;;;;;;18.00;6.68;;;;;;;;;;507333;29;888;-76
2022/02/12 00:43:09;;;;;;;16.13;6.90;;;;;;;;;;506944;29;1451;-76
2022/02/12 00:43:24;;;;;;;18.40;7.37;;;;;;;;;;506835;29;877;-76
2022/02/12 00:43:39;;;;;;;18.95;7.80;;;;;;;;;;504922;29;1197;-76
2022/02/12 00:43:54;;;;;;;18.57;8.03;;;;;;;;;;507515;29;762;-76
2022/02/12 00:44:10;;;;;;;20.40;7.97;;;;;;;;;;505292;29;889;-76
2022/02/12 00:44:25;;;;;;;20.05;7.85;;;;;;;;;;506079;29;952;-76
2022/02/12 00:44:41;;;;;;;20.63;7.97;;;;;;;;;;504138;29;1015;-76
2022/02/12 00:44:56;;;;;;;22.33;8.18;;;;;;;;;;505677;29;853;-76
2022/02/12 00:45:11;;;;;;;21.73;8.00;;;;;;;;;;508899;29;852;-76
2022/02/12 00:45:27;;;;;;;19.65;7.90;;;;;;;;;;505228;29;1114;-76
2022/02/12 00:45:43;;;;;;;19.20;7.80;;;;;;;;;;503903;29;1082;-76
2022/02/12 00:45:59;;;;;;;17.65;7.60;;;;;;;;;;507662;29;884;-76
2022/02/12 00:46:14;;;;;;;15.63;7.10;;;;;;;;;;507414;29;1346;-76
2022/02/12 00:46:29;;;;;;;16.37;6.97;;;;;;;;;;507576;29;687;-76
2022/02/12 00:46:45;;;;;;;19.50;7.05;;;;;;;;;;507421;29;742;-76
2022/02/12 00:47:00;;;;;;;19.07;6.97;;;;;;;;;;507307;29;993;-76
2022/02/12 00:47:16;;;;;;;16.52;7.10;;;;;;;;;;505420;29;1271;-76
2022/02/12 00:47:31;;;;;;;16.47;6.97;;;;;;;;;;505595;29;793;-76
2022/02/12 00:47:46;;;;;;;17.30;6.83;;;;;;;;;;505181;29;784;-76
2022/02/12 00:48:02;;;;;;;17.98;6.85;;;;;;;;;;505477;29;758;-76
2022/02/12 00:48:17;;;;;;;17.07;7.00;;;;;;;;;;504945;29;1512;-76
2022/02/12 00:48:32;;;;;;;16.33;6.93;;;;;;;;;;503472;29;1372;-76
2022/02/12 00:48:47;;;;;;;15.27;6.75;;;;;;;;;;503450;29;1093;-76
2022/02/12 00:49:03;;;;;;;16.33;6.80;;;;;;;;;;503840;29;1378;-76
2022/02/12 00:49:19;;;;;;;15.23;6.60;;;;;;;;;;503026;29;1085;-76
2022/02/12 00:49:36;;;;;;;15.60;6.60;;;;;;;;;;504032;29;1289;-76
2022/02/12 00:49:51;;;;;;;18.95;6.93;;;;;;;;;;503012;29;1515;-76
2022/02/12 00:50:07;;;;;;;18.63;6.72;;;;;;;;;;505449;29;1205;-76
2022/02/12 00:50:22;;;;;;;15.23;6.47;;;;;;;;;;504889;29;1450;-76
2022/02/12 00:50:38;;;;;;;14.80;6.57;;;;;;;;;;501332;29;1320;-76
2022/02/12 00:50:59;;;;;;;15.73;6.60;;;;;;;;;;503233;29;1215;-76
2022/02/12 00:51:14;;;;;;;18.00;6.53;;;;;;;;;;503209;29;1392;-76
2022/02/12 00:51:30;;;;;;;17.55;6.90;;;;;;;;;;503283;29;1182;-76
2022/02/12 00:51:46;;;;;;;16.73;7.20;;;;;;;;;;501665;29;1210;-76
2022/02/12 00:52:01;;;;;;;16.52;7.18;;;;;;;;;;501192;29;853;-76
2022/02/12 00:52:16;;;;;;;18.47;7.03;;;;;;;;;;502200;29;1975;-76
2022/02/12 00:52:32;;;;;;;19.70;6.83;;;;;;;;;;504478;29;830;-76
2022/02/12 00:52:47;;;;;;;17.23;6.78;;;;;;;;;;505434;29;837;-76
2022/02/12 00:53:02;;;;;;;18.07;7.00;;;;;;;;;;505600;29;736;-76
2022/02/12 00:53:18;;;;;;;17.47;6.77;;;;;;;;;;504980;29;1594;-76
2022/02/12 00:53:33;;;;;;;16.00;6.53;;;;;;;;;;504646;29;853;-76
2022/02/12 00:53:48;;;;;;;16.67;6.60;;;;;;;;;;504789;29;1242;-76
2022/02/12 00:54:05;;;;;;;18.83;7.00;;;;;;;;;;505070;29;873;-77
2022/02/12 00:54:21;;;;;;;17.95;7.03;;;;;;;;;;507481;29;758;-76
2022/02/12 00:54:37;;;;;;;15.63;6.72;;;;;;;;;;507451;29;785;-78
2022/02/12 00:54:52;;;;;;;15.65;6.65;;;;;;;;;;505037;29;1231;-77
2022/02/12 00:55:08;;;;;;;14.63;6.13;;;;;;;;;;505232;29;881;-77
2022/02/12 00:55:24;;;;;;;13.43;5.93;;;;;;;;;;504827;29;1150;-77
2022/02/12 00:55:39;;;;;;;14.85;6.32;;;;;;;;;;505259;29;778;-77
2022/02/12 00:55:55;;;;;;;15.73;6.28;;;;;;;;;;505330;29;1050;-77
2022/02/12 00:56:11;;;;;;;15.35;6.43;;;;;;;;;;503013;29;1316;-77
2022/02/12 00:56:26;;;;;;;15.50;6.30;;;;;;;;;;503356;29;739;-77
2022/02/12 00:56:41;;;;;;;16.20;6.07;;;;;;;;;;501689;29;1043;-77
2022/02/12 00:56:57;;;;;;;16.23;6.27;;;;;;;;;;503176;29;1467;-77
2022/02/12 00:57:12;;;;;;;16.33;6.47;;;;;;;;;;503520;29;751;-77
2022/02/12 00:57:27;;;;;;;16.57;6.40;;;;;;;;;;503121;29;1287;-77
2022/02/12 00:57:42;;;;;;;16.83;6.27;;;;;;;;;;503480;29;1421;-77
2022/02/12 00:57:58;;;;;;;17.60;6.43;;;;;;;;;;503919;29;1398;-77
2022/02/12 00:58:13;;;;;;;17.27;6.90;;;;;;;;;;505173;29;1435;-77
2022/02/12 00:58:29;;;;;;;17.97;6.83;;;;;;;;;;506686;29;1175;-77
2022/02/12 00:58:44;;;;;;;16.60;6.35;;;;;;;;;;505970;29;1207;-78
2022/02/12 00:58:59;;;;;;;16.17;6.30;;;;;;;;;;505643;29;1529;-77
2022/02/12 00:59:15;;;;;;;15.70;6.17;;;;;;;;;;505966;29;945;-77
2022/02/12 00:59:30;;;;;;;15.43;6.30;;;;;;;;;;507707;29;995;-77
2022/02/12 00:59:45;;;;;;;15.60;6.33;;;;;;;;;;506307;29;1385;-77
2022/02/12 01:00:01;;;;;;;18.43;6.40;;;;;;;;;;507203;29;1476;-77
2022/02/12 01:00:16;;;;;;;20.60;6.70;;;;;;;;;;504888;29;1421;-77
2022/02/12 01:00:33;;;;;;;18.27;6.70;;;;;;;;;;501665;29;1399;-77
2022/02/12 01:00:48;;;;;;;18.17;6.55;;;;;;;;;;501949;29;810;-77
2022/02/12 01:01:04;;;;;;;17.97;6.40;;;;;;;;;;501942;29;740;-77
2022/02/12 01:01:19;;;;;;;16.63;6.32;;;;;;;;;;501792;29;826;-77
2022/02/12 01:01:35;;;;;;;17.57;6.40;;;;;;;;;;501634;29;888;-77
2022/02/12 01:01:51;;;;;;;16.38;6.55;;;;;;;;;;503606;29;1375;-77
2022/02/12 01:02:07;;;;;;;14.35;6.53;;;;;;;;;;503717;29;1235;-77
2022/02/12 01:02:22;;;;;;;14.88;6.47;;;;;;;;;;503936;29;1390;-77
2022/02/12 01:02:37;;;;;;;15.50;6.27;;;;;;;;;;505588;29;886;-77
2022/02/12 01:02:53;;;;;;;16.70;6.20;;;;;;;;;;505487;29;754;-77
2022/02/12 01:03:08;;;;;;;16.37;6.40;;;;;;;;;;503462;29;1504;-77
2022/02/12 01:03:23;;;;;;;14.07;6.23;;;;;;;;;;505451;29;1824;-77
2022/02/12 01:03:39;;;;;;;15.18;6.05;;;;;;;;;;505258;29;883;-77
2022/02/12 01:03:54;;;;;;;18.37;6.33;;;;;;;;;;504036;29;895;-77
2022/02/12 01:04:09;;;;;;;16.97;6.33;;;;;;;;;;505466;29;694;-77
2022/02/12 01:04:25;;;;;;;15.20;6.18;;;;;;;;;;502958;29;1195;-77
2022/02/12 01:04:40;;;;;;;14.70;5.87;;;;;;;;;;503230;29;825;-77
2022/02/12 01:04:55;;;;;;;14.60;5.85;;;;;;;;;;503718;29;829;-77
2022/02/12 01:05:11;;;;;;;13.90;6.23;;;;;;;;;;505265;29;778;-76
2022/02/12 01:05:26;;;;;;;14.97;6.27;;;;;;;;;;505044;29;905;-75
2022/02/12 01:05:42;;;;;;;15.98;6.20;;;;;;;;;;503012;29;1541;-75
2022/02/12 01:05:57;;;;;;;16.87;6.67;;;;;;;;;;501654;29;1205;-75
2022/02/12 01:06:12;;;;;;;18.20;6.53;;;;;;;;;;501965;29;1133;-76
2022/02/12 01:06:29;;;;;;;16.63;6.30;;;;;;;;;;505250;29;1080;-75
2022/02/12 01:06:44;;;;;;;14.70;6.45;;;;;;;;;;505302;29;1253;-75
2022/02/12 01:07:00;;;;;;;14.87;6.33;;;;;;;;;;505529;29;1182;-76
2022/02/12 01:07:15;;;;;;;14.90;6.37;;;;;;;;;;505555;29;1571;-75
2022/02/12 01:07:30;;;;;;;16.90;6.77;;;;;;;;;;505717;29;790;-76
2022/02/12 01:07:45;;;;;;;16.67;6.67;;;;;;;;;;505973;29;1170;-75
2022/02/12 01:08:03;;;;;;;14.60;6.10;;;;;;;;;;507613;29;1142;-76
2022/02/12 01:08:18;;;;;;;13.38;6.07;;;;;;;;;;504634;29;1508;-75
2022/02/12 01:08:33;;;;;;;13.17;6.23;;;;;;;;;;504956;29;2639;-76
2022/02/12 01:08:49;;;;;;;14.83;6.50;;;;;;;;;;504425;29;987;-76
2022/02/12 01:09:04;;;;;;;17.00;6.70;;;;;;;;;;503900;29;900;-76
2022/02/12 01:09:19;;;;;;;16.47;6.70;;;;;;;;;;505181;29;687;-76
2022/02/12 01:09:37;;;;;;;16.57;6.70;;;;;;;;;;503425;29;881;-76
2022/02/12 01:09:52;;;;;;;15.23;6.50;;;;;;;;;;503532;29;786;-76
2022/02/12 01:10:09;;;;;;;14.48;6.32;;;;;;;;;;505759;29;1198;-76
2022/02/12 01:10:24;;;;;;;15.80;6.38;;;;;;;;;;506855;29;702;-76
2022/02/12 01:10:39;;;;;;;16.17;6.33;;;;;;;;;;505213;29;1132;-76
2022/02/12 01:10:55;;;;;;;15.67;6.30;;;;;;;;;;505157;29;869;-76
2022/02/12 01:11:11;;;;;;;14.67;6.43;;;;;;;;;;505500;29;929;-76
2022/02/12 01:11:26;;;;;;;17.05;6.53;;;;;;;;;;505589;29;802;-76
2022/02/12 01:11:42;;;;;;;17.97;6.43;;;;;;;;;;505126;29;1354;-76
2022/02/12 01:11:57;;;;;;;16.80;6.30;;;;;;;;;;504012;29;1410;-76
2022/02/12 01:12:12;;;;;;;16.13;6.30;;;;;;;;;;505158;29;1311;-76
2022/02/12 01:12:28;;;;;;;15.90;6.30;;;;;;;;;;505168;29;1919;-76
2022/02/12 01:12:43;;;;;;;17.47;6.30;;;;;;;;;;504877;29;966;-76
2022/02/12 01:13:00;;;;;;;16.33;6.10;;;;;;;;;;505130;29;908;-75
2022/02/12 01:13:15;;;;;;;16.42;6.13;;;;;;;;;;504625;29;1543;-76
2022/02/12 01:13:31;;;;;;;18.33;6.37;;;;;;;;;;503583;29;1286;-76
2022/02/12 01:13:46;;;;;;;17.60;6.43;;;;;;;;;;505113;29;722;-76
2022/02/12 01:14:02;;;;;;;17.58;6.40;;;;;;;;;;503360;29;1285;-76
2022/02/12 01:14:17;;;;;;;17.37;6.00;;;;;;;;;;503198;29;1255;-76
2022/02/12 01:14:33;;;;;;;18.10;6.07;;;;;;;;;;501594;29;1360;-76
2022/02/12 01:14:49;;;;;;;18.13;6.63;;;;;;;;;;501194;29;1235;-76
2022/02/12 01:15:05;;;;;;;15.60;6.30;;;;;;;;;;503274;29;1204;-76
2022/02/12 01:15:20;;;;;;;15.43;5.75;;;;;;;;;;503625;29;918;-76
2022/02/12 01:15:35;;;;;;;14.98;5.97;;;;;;;;;;505612;29;964;-75
2022/02/12 01:15:52;;;;;;;14.10;6.20;;;;;;;;;;507049;29;1154;-76
2022/02/12 01:16:07;;;;;;;14.70;6.00;;;;;;;;;;507564;29;786;-76
2022/02/12 01:16:23;;;;;;;14.75;5.93;;;;;;;;;;507274;29;731;-76
2022/02/12 01:16:39;;;;;;;15.05;6.20;;;;;;;;;;506110;29;904;-76
2022/02/12 01:16:54;;;;;;;14.98;6.22;;;;;;;;;;504978;29;1098;-76
2022/02/12 01:17:10;;;;;;;13.97;5.90;;;;;;;;;;506013;29;1039;-76
2022/02/12 01:17:26;;;;;;;15.02;5.93;;;;;;;;;;505026;29;1256;-76
2022/02/12 01:17:41;;;;;;;16.20;6.22;;;;;;;;;;503045;29;982;-76
2022/02/12 01:17:56;;;;;;;14.63;6.07;;;;;;;;;;504061;29;1279;-76
2022/02/12 01:18:12;;;;;;;14.83;5.83;;;;;;;;;;505921;29;1514;-76
2022/02/12 01:18:28;;;;;;;15.40;5.65;;;;;;;;;;506419;29;1388;-76
2022/02/12 01:18:43;;;;;;;16.80;5.97;;;;;;;;;;506048;29;891;-75
2022/02/12 01:18:58;;;;;;;16.83;6.40;;;;;;;;;;506990;29;1017;-76
2022/02/12 01:19:14;;;;;;;16.47;6.33;;;;;;;;;;507052;29;983;-76
2022/02/12 01:19:29;;;;;;;16.42;6.10;;;;;;;;;;505441;29;877;-76
2022/02/12 01:19:46;;;;;;;14.93;5.83;;;;;;;;;;504284;29;730;-76
2022/02/12 01:20:02;;;;;;;13.65;5.80;;;;;;;;;;502151;29;782;-76
2022/02/12 01:20:17;;;;;;;14.80;5.82;;;;;;;;;;503661;29;966;-76
2022/02/12 01:20:34;;;;;;;15.88;5.93;;;;;;;;;;507543;29;873;-76
2022/02/12 01:20:50;;;;;;;14.82;5.95;;;;;;;;;;505124;29;1452;-75
2022/02/12 01:21:05;;;;;;;15.37;5.83;;;;;;;;;;505175;29;1016;-76
2022/02/12 01:21:20;;;;;;;14.80;6.00;;;;;;;;;;503476;29;1189;-76
2022/02/12 01:21:36;;;;;;;15.60;5.97;;;;;;;;;;503438;29;794;-75
2022/02/12 01:21:51;;;;;;;15.60;6.10;;;;;;;;;;501580;29;1219;-76
2022/02/12 01:22:06;;;;;;;13.73;5.90;;;;;;;;;;501623;29;924;-76
2022/02/12 01:22:23;;;;;;;12.75;5.78;;;;;;;;;;501858;29;1419;-76
2022/02/12 01:22:39;;;;;;;14.32;5.88;;;;;;;;;;502180;29;1056;-76
2022/02/12 01:22:55;;;;;;;16.90;6.10;;;;;;;;;;503439;29;1401;-76
2022/02/12 01:23:10;;;;;;;16.97;6.00;;;;;;;;;;502673;29;1555;-76
2022/02/12 01:23:26;;;;;;;15.88;5.78;;;;;;;;;;503950;29;976;-75
2022/02/12 01:23:41;;;;;;;16.42;5.82;;;;;;;;;;504185;29;1200;-75
2022/02/12 01:23:56;;;;;;;15.57;5.70;;;;;;;;;;505688;29;822;-75
2022/02/12 01:24:12;;;;;;;13.67;5.63;;;;;;;;;;504930;29;948;-76
2022/02/12 01:24:27;;;;;;;16.02;6.15;;;;;;;;;;501607;29;1204;-76
2022/02/12 01:24:43;;;;;;;17.53;6.27;;;;;;;;;;501996;29;941;-75
2022/02/12 01:24:58;;;;;;;14.90;6.13;;;;;;;;;;503691;29;695;-76
2022/02/12 01:25:13;;;;;;;14.33;6.13;;;;;;;;;;504685;29;868;-76
2022/02/12 01:25:29;;;;;;;13.90;5.93;;;;;;;;;;504903;29;1220;-75
2022/02/12 01:25:48;;;;;;;13.85;6.07;;;;;;;;;;504884;29;1075;-76
2022/02/12 01:26:04;;;;;;;13.35;5.95;;;;;;;;;;505245;29;1326;-75
2022/02/12 01:26:19;;;;;;;14.73;6.00;;;;;;;;;;504788;29;877;-75
2022/02/12 01:26:35;;;;;;;16.57;6.23;;;;;;;;;;505474;29;763;-76
2022/02/12 01:26:51;;;;;;;14.95;6.10;;;;;;;;;;505640;29;785;-76
2022/02/12 01:27:06;;;;;;;14.75;6.10;;;;;;;;;;505498;29;1238;-76
2022/02/12 01:27:22;;;;;;;15.27;6.10;;;;;;;;;;505249;29;719;-76
2022/02/12 01:27:37;;;;;;;15.82;6.22;;;;;;;;;;505662;29;1211;-76
2022/02/12 01:27:53;;;;;;;15.68;6.30;;;;;;;;;;505250;29;1146;-76
2022/02/12 01:28:08;;;;;;;14.93;6.50;;;;;;;;;;503264;29;1422;-76
2022/02/12 01:28:24;;;;;;;17.03;6.43;;;;;;;;;;504882;29;1392;-76
2022/02/12 01:28:39;;;;;;;17.40;6.27;;;;;;;;;;507450;29;1262;-76
2022/02/12 01:28:54;;;;;;;15.30;6.20;;;;;;;;;;505176;29;1041;-76
2022/02/12 01:29:10;;;;;;;14.05;6.13;;;;;;;;;;506145;29;1649;-76
2022/02/12 01:29:25;;;;;;;13.60;6.00;;;;;;;;;;504927;29;968;-76
2022/02/12 01:29:40;;;;;;;15.33;6.10;;;;;;;;;;505154;29;766;-76
2022/02/12 01:29:55;;;;;;;14.45;6.13;;;;;;;;;;505593;29;963;-76
2022/02/12 01:30:11;;;;;;;15.53;6.30;;;;;;;;;;505580;29;1190;-75
2022/02/12 01:30:27;;;;;;;16.67;6.47;;;;;;;;;;505156;29;1613;-76
2022/02/12 01:30:43;;;;;;;15.03;6.10;;;;;;;;;;503689;29;1548;-76
2022/02/12 01:30:58;;;;;;;14.10;5.78;;;;;;;;;;503438;29;766;-76
2022/02/12 01:31:14;;;;;;;13.32;5.93;;;;;;;;;;503470;29;801;-76
2022/02/12 01:31:30;;;;;;;15.52;6.25;;;;;;;;;;503265;29;933;-76
2022/02/12 01:31:45;;;;;;;16.77;6.17;;;;;;;;;;503268;29;885;-76
2022/02/12 01:32:04;;;;;;;16.77;6.18;;;;;;;;;;504192;29;933;-76
2022/02/12 01:32:20;;;;;;;14.57;6.00;;;;;;;;;;505202;29;1924;-76
2022/02/12 01:32:37;;;;;;;15.15;6.10;;;;;;;;;;507570;29;1313;-76
2022/02/12 01:32:52;;;;;;;17.15;6.32;;;;;;;;;;505712;29;1381;-76
2022/02/12 01:33:07;;;;;;;18.43;6.20;;;;;;;;;;507173;29;1326;-76
2022/02/12 01:33:23;;;;;;;17.67;5.87;;;;;;;;;;505665;29;1603;-76
2022/02/12 01:33:38;;;;;;;15.07;5.75;;;;;;;;;;506633;29;853;-76
2022/02/12 01:33:53;;;;;;;15.40;5.87;;;;;;;;;;507171;29;767;-76
2022/02/12 01:34:09;;;;;;;16.70;5.93;;;;;;;;;;505308;29;1156;-76
2022/02/12 01:34:24;;;;;;;16.17;5.90;;;;;;;;;;505296;29;878;-76
2022/02/12 01:34:39;;;;;;;16.17;5.93;;;;;;;;;;505154;29;1285;-76
2022/02/12 01:34:55;;;;;;;15.87;5.83;;;;;;;;;;505302;29;1171;-76
2022/02/12 01:35:12;;;;;;;15.10;5.97;;;;;;;;;;505239;29;1409;-76
2022/02/12 01:35:27;;;;;;;15.43;5.90;;;;;;;;;;504869;29;1266;-76